Holman, New Mexico
Current Conditions -  °F | °C
As of 11:35 AM on Thursday 30 Oct 2014 (Local Time) from KAXX Reporting Station
Clear Clear  
Wind Chill: 54°   Ceiling: Unl
Heat Index: 54°   Visibility: 10mi
Dew Point: 11°   Wind: 0mph
Humidity: 19%   Direction: NA
Pressure: 30.46"   Gusts: NA
Location:  36.04°N, 105.39°W
Report Text: KAXX 301735Z AUTO 00000KT 10SM CLR 12/M11 A3046 RMK AO2 T01211114
Loading
Personal Weather Stations






























Interactive Weather Map
Tropical Storm Tracking
New forecast layout! Learn more

10-Day Weather Forecast

Advertisements
Track Severe Weather on mobile